createdAt,value
2023-01-01T00:01:21.696Z,7.15
2023-01-01T00:03:52.404Z,6.60
2023-01-01T00:06:18.886Z,6.72
2023-01-01T00:08:45.466Z,6.90
2023-01-01T00:11:11.843Z,6.95
2023-01-01T00:13:40.226Z,6.50
2023-01-01T00:16:14.526Z,6.10
2023-01-01T00:18:41.258Z,6.35
2023-01-01T00:21:13.411Z,6.05
2023-01-01T00:23:39.965Z,5.65
2023-01-01T00:26:17.429Z,4.60
2023-01-01T00:28:44.865Z,4.45
2023-01-01T00:33:44.490Z,4.30
2023-01-01T00:36:13.301Z,3.95
2023-01-01T00:38:40.494Z,3.80
2023-01-01T00:41:07.061Z,2.90
2023-01-01T00:43:33.682Z,2.90
2023-01-01T00:46:00.151Z,2.92
2023-01-01T00:48:26.744Z,2.60
2023-01-01T00:50:53.491Z,2.70
2023-01-01T00:53:20.733Z,2.40
2023-01-01T00:55:48.671Z,2.20
2023-01-01T00:58:16.524Z,1.95
2023-01-01T01:00:43.350Z,2.30
2023-01-01T01:03:27.934Z,2.28
2023-01-01T01:06:03.046Z,2.40
2023-01-01T01:08:31.551Z,2.53
2023-01-01T01:11:24.856Z,2.40
2023-01-01T01:13:57.473Z,2.05
2023-01-01T01:16:31.895Z,2.40
2023-01-01T01:19:01.144Z,2.20
2023-01-01T01:21:30.288Z,2.20
2023-01-01T01:24:01.724Z,2.38
2023-01-01T01:26:31.495Z,2.40
2023-01-01T01:28:59.364Z,2.33
2023-01-01T01:31:28.839Z,2.80
2023-01-01T01:33:55.282Z,2.70
2023-01-01T01:36:21.821Z,2.30
2023-01-01T01:38:48.481Z,2.92
2023-01-01T01:41:27.468Z,2.63
2023-01-01T01:44:03.170Z,2.90
2023-01-01T01:46:42.942Z,2.60
2023-01-01T01:49:27.368Z,2.50
2023-01-01T01:51:54.776Z,2.58
2023-01-01T01:57:12.608Z,2.60
2023-01-01T01:59:43.779Z,2.60
2023-01-01T02:02:18.139Z,2.40
2023-01-01T02:04:44.768Z,2.63
2023-01-01T02:07:14.029Z,2.57
2023-01-01T02:09:40.449Z,2.95
2023-01-01T02:12:06.875Z,2.42
2023-01-01T02:14:33.585Z,2.67
2023-01-01T02:17:09.382Z,2.33
2023-01-01T02:20:06.942Z,2.15
2023-01-01T02:22:46.197Z,2.15
2023-01-01T02:25:40.220Z,2.40
2023-01-01T02:28:24.208Z,2.40
2023-01-01T02:30:53.041Z,2.13
2023-01-01T02:33:25.579Z,2.10
2023-01-01T02:35:57.058Z,1.83
2023-01-01T02:38:29.029Z,1.77
2023-01-01T02:41:00.728Z,1.90
2023-01-01T02:43:27.097Z,1.70
2023-01-01T02:45:54.797Z,1.95
2023-01-01T02:48:43.879Z,1.90
2023-01-01T02:51:23.370Z,1.90
2023-01-01T02:54:04.487Z,1.58
2023-01-01T02:56:38.160Z,1.50
2023-01-01T02:59:48.213Z,1.42
2023-01-01T03:02:30.860Z,1.50
2023-01-01T03:05:16.029Z,1.50
2023-01-01T03:07:45.428Z,1.40
2023-01-01T03:10:19.002Z,1.33
2023-01-01T03:13:00.152Z,1.38
2023-01-01T03:16:03.458Z,1.38
2023-01-01T03:18:40.954Z,1.20
2023-01-01T03:23:46.029Z,1.05
2023-01-01T03:26:16.119Z,1.30
2023-01-01T03:29:04.974Z,1.30
2023-01-01T03:31:33.164Z,1.25
2023-01-01T03:34:06.461Z,1.40
2023-01-01T03:36:39.113Z,1.10
2023-01-01T03:39:10.622Z,1.48
2023-01-01T03:42:00.751Z,1.10
2023-01-01T03:44:33.194Z,1.02
2023-01-01T03:47:00.361Z,1.10
2023-01-01T03:49:27.470Z,1.30
2023-01-01T03:52:17.104Z,1.10
2023-01-01T03:54:59.101Z,1.15
2023-01-01T03:57:48.202Z,1.00
2023-01-01T04:00:20.225Z,1.50
2023-01-01T04:03:12.446Z,1.27
2023-01-01T04:05:41.356Z,1.17
2023-01-01T04:08:08.466Z,1.20
2023-01-01T04:10:39.384Z,1.20
2023-01-01T04:13:06.700Z,1.20
2023-01-01T04:15:33.864Z,1.30
2023-01-01T04:18:00.222Z,1.10
2023-01-01T04:20:26.698Z,1.20
2023-01-01T04:22:57.522Z,1.30
2023-01-01T04:25:24.221Z,1.00
2023-01-01T04:27:50.623Z,1.40
2023-01-01T04:30:17.609Z,1.42
2023-01-01T04:32:44.129Z,1.52
2023-01-01T04:35:14.836Z,1.20
2023-01-01T04:37:43.543Z,1.15
2023-01-01T04:40:12.002Z,1.40
2023-01-01T04:42:38.574Z,1.00
2023-01-01T04:45:05.420Z,1.40
2023-01-01T04:47:31.856Z,1.25
2023-01-01T04:49:58.191Z,1.10
2023-01-01T04:52:24.576Z,1.30
2023-01-01T04:54:50.909Z,1.17
2023-01-01T04:57:17.275Z,1.10
2023-01-01T04:59:43.892Z,1.35
2023-01-01T05:02:10.399Z,1.65
2023-01-01T05:04:36.787Z,1.33
2023-01-01T05:07:03.153Z,1.27
2023-01-01T05:09:29.515Z,1.45
2023-01-01T05:11:56.092Z,1.50
2023-01-01T05:14:22.679Z,1.23
2023-01-01T05:16:49.915Z,1.60
2023-01-01T05:19:16.281Z,1.48
2023-01-01T05:21:42.634Z,1.30
2023-01-01T05:24:10.435Z,1.35
2023-01-01T05:26:42.482Z,1.60
2023-01-01T05:29:15.659Z,1.38
2023-01-01T05:31:43.250Z,1.50
2023-01-01T05:34:09.850Z,1.70
2023-01-01T05:36:38.985Z,1.20
2023-01-01T05:39:07.284Z,1.77
2023-01-01T05:41:36.229Z,1.60
2023-01-01T05:44:06.609Z,1.52
2023-01-01T05:46:33.357Z,1.30
2023-01-01T05:49:00.001Z,1.55
2023-01-01T05:51:28.999Z,1.38
2023-01-01T05:53:56.175Z,1.30
2023-01-01T05:56:23.465Z,1.63
2023-01-01T05:58:49.949Z,1.50
2023-01-01T06:01:28.183Z,1.63
2023-01-01T06:03:56.358Z,1.65
2023-01-01T06:06:28.920Z,1.60
2023-01-01T06:08:57.991Z,1.42
2023-01-01T06:11:24.502Z,1.33
2023-01-01T06:13:55.899Z,1.60
2023-01-01T06:16:22.933Z,1.45
2023-01-01T06:18:49.853Z,1.50
2023-01-01T06:21:21.610Z,1.58
2023-01-01T06:23:48.337Z,1.50
2023-01-01T06:26:17.618Z,1.30
2023-01-01T06:28:44.813Z,1.50
2023-01-01T06:31:13.594Z,1.50
2023-01-01T06:33:40.258Z,1.50
2023-01-01T06:36:08.870Z,1.53
2023-01-01T06:38:37.230Z,1.35
2023-01-01T06:41:06.139Z,1.67
2023-01-01T06:43:33.967Z,1.40
2023-01-01T06:46:04.953Z,1.30
2023-01-01T06:48:33.174Z,1.70
2023-01-01T06:51:09.258Z,1.80
2023-01-01T06:53:35.977Z,1.67
2023-01-01T06:56:02.337Z,1.65
2023-01-01T06:58:28.921Z,1.75
2023-01-01T07:01:08.126Z,1.77
2023-01-01T07:03:36.476Z,1.63
2023-01-01T07:06:03.313Z,1.70
2023-01-01T07:08:29.773Z,1.67
2023-01-01T07:10:57.472Z,2.00
2023-01-01T07:13:24.820Z,1.88
2023-01-01T07:15:52.326Z,2.17
2023-01-01T07:18:20.238Z,1.80
2023-01-01T07:20:52.554Z,1.70
2023-01-01T07:23:19.148Z,1.70
2023-01-01T07:25:45.505Z,1.93
2023-01-01T07:28:13.157Z,1.83
2023-01-01T07:30:39.554Z,1.60
2023-01-01T07:33:06.014Z,2.08
2023-01-01T07:35:32.387Z,2.88
2023-01-01T07:37:58.762Z,2.42
2023-01-01T07:40:25.105Z,2.38
2023-01-01T07:42:51.508Z,2.28
2023-01-01T07:45:17.845Z,2.35
2023-01-01T07:47:54.781Z,2.60
2023-01-01T07:50:22.414Z,2.63
2023-01-01T07:52:48.847Z,2.70
2023-01-01T07:55:17.577Z,2.70
2023-01-01T07:57:44.805Z,2.75
2023-01-01T08:00:14.454Z,3.28
2023-01-01T08:02:40.970Z,2.97
2023-01-01T08:05:07.861Z,3.17
2023-01-01T08:07:38.263Z,3.22
2023-01-01T08:10:06.323Z,3.00
2023-01-01T08:12:33.812Z,3.50
2023-01-01T08:17:26.749Z,3.50
2023-01-01T08:19:53.142Z,3.10
2023-01-01T08:22:19.552Z,2.78
2023-01-01T08:24:45.898Z,3.00
2023-01-01T08:27:13.779Z,2.50
2023-01-01T08:29:40.210Z,2.88
2023-01-01T08:32:06.568Z,2.45
2023-01-01T08:34:32.911Z,2.50
2023-01-01T08:36:59.948Z,2.45
2023-01-01T08:39:26.451Z,2.42
2023-01-01T08:41:52.872Z,3.10
2023-01-01T08:44:19.675Z,2.58
2023-01-01T08:46:46.181Z,2.47
2023-01-01T08:49:12.539Z,2.43
2023-01-01T08:51:38.905Z,2.17
2023-01-01T08:54:05.358Z,2.08
2023-01-01T08:56:31.747Z,2.33
2023-01-01T08:59:03.874Z,2.05
2023-01-01T09:01:31.048Z,2.30
2023-01-01T09:03:57.465Z,2.40
2023-01-01T09:06:23.850Z,2.20
2023-01-01T09:08:50.264Z,2.05
2023-01-01T09:11:24.168Z,2.20
2023-01-01T09:13:50.573Z,2.30
2023-01-01T09:16:17.020Z,2.40
2023-01-01T09:18:43.450Z,2.03
2023-01-01T09:21:10.164Z,2.30
2023-01-01T09:23:36.880Z,2.22
2023-01-01T09:26:04.987Z,1.95
2023-01-01T09:28:31.554Z,2.10
2023-01-01T09:30:57.943Z,1.88
2023-01-01T09:33:24.422Z,2.30
2023-01-01T09:35:50.826Z,1.97
2023-01-01T09:38:17.178Z,2.13
2023-01-01T09:41:00.249Z,2.10
2023-01-01T09:43:48.636Z,2.03
2023-01-01T09:46:15.248Z,2.10
2023-01-01T09:48:50.848Z,2.00
2023-01-01T09:51:19.897Z,2.10
2023-01-01T09:54:01.911Z,2.53
2023-01-01T09:56:30.790Z,2.00
2023-01-01T09:58:59.305Z,2.20
2023-01-01T10:02:02.698Z,1.70
2023-01-01T10:04:59.632Z,1.90
2023-01-01T10:10:28.022Z,1.40
2023-01-01T10:13:04.463Z,1.80
2023-01-01T10:15:34.416Z,1.80
2023-01-01T10:18:06.580Z,1.90
2023-01-01T10:20:44.148Z,1.55
2023-01-01T10:23:25.097Z,1.42
2023-01-01T10:25:52.223Z,1.83
2023-01-01T10:28:35.204Z,1.58
2023-01-01T10:31:40.619Z,1.85
2023-01-01T10:34:26.561Z,1.63
2023-01-01T10:36:54.810Z,1.63
2023-01-01T10:39:21.601Z,1.50
2023-01-01T10:41:48.589Z,1.70
2023-01-01T10:44:18.017Z,1.80
2023-01-01T10:46:49.037Z,1.80
2023-01-01T10:49:16.450Z,1.65
2023-01-01T10:54:32.183Z,1.98
2023-01-01T10:56:59.308Z,1.65
2023-01-01T10:59:38.780Z,1.80
2023-01-01T11:02:25.715Z,1.80
2023-01-01T11:05:16.286Z,1.60
2023-01-01T11:07:46.546Z,1.75
2023-01-01T11:10:22.513Z,1.60
2023-01-01T11:13:06.692Z,1.75
2023-01-01T11:15:39.435Z,2.05
2023-01-01T11:18:10.676Z,1.60
2023-01-01T11:20:37.136Z,1.40
2023-01-01T11:23:38.407Z,1.57
2023-01-01T11:26:13.756Z,1.73
2023-01-01T11:28:41.369Z,1.95
2023-01-01T11:31:15.242Z,1.80
2023-01-01T11:33:55.862Z,1.83
2023-01-01T11:36:25.005Z,2.75
2023-01-01T11:39:06.695Z,1.90
2023-01-01T11:41:44.772Z,1.73
2023-01-01T11:44:13.604Z,1.67
2023-01-01T11:46:40.158Z,1.50
2023-01-01T11:49:15.154Z,1.80
2023-01-01T11:51:41.937Z,1.77
2023-01-01T11:54:23.590Z,2.00
2023-01-01T11:56:54.218Z,2.00
2023-01-01T11:59:26.881Z,2.08
2023-01-01T12:02:04.173Z,1.58
2023-01-01T12:04:42.096Z,1.90
2023-01-01T12:07:13.756Z,2.00
2023-01-01T12:09:43.466Z,1.85
2023-01-01T12:12:16.323Z,1.50
2023-01-01T12:15:05.441Z,1.67
2023-01-01T12:17:40.387Z,1.90
2023-01-01T12:20:16.399Z,1.80
2023-01-01T12:22:42.794Z,1.70
2023-01-01T12:25:14.999Z,1.50
2023-01-01T12:28:00.133Z,2.03
2023-01-01T12:30:51.691Z,1.60
2023-01-01T12:33:48.804Z,1.60
2023-01-01T12:36:45.350Z,1.65
2023-01-01T12:39:30.478Z,1.80
2023-01-01T12:42:37.724Z,1.40
2023-01-01T12:45:31.878Z,2.05
2023-01-01T12:48:19.699Z,1.52
2023-01-01T12:51:05.030Z,1.67
2023-01-01T12:53:50.498Z,1.50
2023-01-01T12:56:49.416Z,1.75
2023-01-01T12:59:20.033Z,1.30
2023-01-01T13:01:47.623Z,1.45
2023-01-01T13:04:18.100Z,1.60
2023-01-01T13:06:55.715Z,1.67
2023-01-01T13:09:25.795Z,1.70
2023-01-01T13:11:58.802Z,1.73
2023-01-01T13:14:25.319Z,1.75
2023-01-01T13:16:53.878Z,1.70
2023-01-01T13:19:40.806Z,1.73
2023-01-01T13:22:25.390Z,1.92
2023-01-01T13:25:22.993Z,2.10
2023-01-01T13:28:00.303Z,1.83
2023-01-01T13:30:50.193Z,1.60
2023-01-01T13:33:29.598Z,1.63
2023-01-01T13:36:18.841Z,1.58
2023-01-01T13:38:55.305Z,1.88
2023-01-01T13:41:37.076Z,2.00
2023-01-01T13:44:03.426Z,1.67
2023-01-01T13:46:41.827Z,1.67
2023-01-01T13:49:32.211Z,1.70
2023-01-01T13:52:27.517Z,1.90
2023-01-01T13:55:05.892Z,1.70
2023-01-01T13:57:52.771Z,1.52
2023-01-01T14:00:33.739Z,1.70
2023-01-01T14:03:14.226Z,2.15
2023-01-01T14:05:53.559Z,1.60
2023-01-01T14:08:30.605Z,1.50
2023-01-01T14:10:58.075Z,2.00
2023-01-01T14:13:29.937Z,1.95
2023-01-01T14:16:08.798Z,2.70
2023-01-01T14:18:49.340Z,3.10
2023-01-01T14:21:29.088Z,2.67
2023-01-01T14:24:07.538Z,2.17
2023-01-01T14:26:37.951Z,2.10
2023-01-01T14:29:10.138Z,1.90
2023-01-01T14:31:43.013Z,1.90
2023-01-01T14:34:29.972Z,2.00
2023-01-01T14:36:59.169Z,1.75
2023-01-01T14:39:27.929Z,2.00
2023-01-01T14:41:58.843Z,1.77
2023-01-01T14:44:32.661Z,1.75
2023-01-01T14:46:59.147Z,2.20
2023-01-01T14:49:33.194Z,2.40
2023-01-01T14:52:23.389Z,1.98
2023-01-01T14:54:51.036Z,2.20
2023-01-01T14:57:24.245Z,1.67
2023-01-01T14:59:54.687Z,2.42
2023-01-01T15:02:26.527Z,1.80
2023-01-01T15:04:52.984Z,2.00
2023-01-01T15:07:24.901Z,2.28
2023-01-01T15:09:56.188Z,2.25
2023-01-01T15:12:23.753Z,2.45
2023-01-01T15:14:52.335Z,2.20
2023-01-01T15:17:21.503Z,3.00
2023-01-01T15:20:01.698Z,3.00
2023-01-01T15:22:31.837Z,3.60
2023-01-01T15:25:02.503Z,3.80
2023-01-01T15:27:31.778Z,3.38
2023-01-01T15:29:58.823Z,3.05
2023-01-01T15:32:31.081Z,3.10
2023-01-01T15:35:03.215Z,2.70
2023-01-01T15:37:37.034Z,2.70
2023-01-01T15:40:26.805Z,2.47
2023-01-01T15:42:59.010Z,2.50
2023-01-01T15:45:25.312Z,2.72
2023-01-01T15:47:57.168Z,3.10
2023-01-01T15:50:30.151Z,2.65
2023-01-01T15:53:01.795Z,2.72
2023-01-01T15:55:32.974Z,2.20
2023-01-01T15:57:59.554Z,2.92
2023-01-01T16:00:31.453Z,2.13
2023-01-01T16:03:01.965Z,2.17
2023-01-01T16:05:28.430Z,2.58
2023-01-01T16:08:00.805Z,2.67
2023-01-01T16:10:27.459Z,3.00
2023-01-01T16:12:53.836Z,3.25
2023-01-01T16:15:20.309Z,2.97
2023-01-01T16:17:46.719Z,3.30
2023-01-01T16:20:17.504Z,3.22
2023-01-01T16:22:44.779Z,2.95
2023-01-01T16:25:23.777Z,4.10
2023-01-01T16:27:50.149Z,2.63
2023-01-01T16:30:16.670Z,2.20
2023-01-01T16:32:43.032Z,2.37
2023-01-01T16:35:13.549Z,2.10
2023-01-01T16:37:40.427Z,2.03
2023-01-01T16:40:08.093Z,2.25
2023-01-01T16:42:34.753Z,2.38
2023-01-01T16:45:01.330Z,2.40
2023-01-01T16:47:27.704Z,2.80
2023-01-01T16:49:54.084Z,2.40
2023-01-01T16:52:20.475Z,2.33
2023-01-01T16:54:46.803Z,2.50
2023-01-01T16:57:13.283Z,2.22
2023-01-01T16:59:39.787Z,2.25
2023-01-01T17:02:08.707Z,1.97
2023-01-01T17:04:36.528Z,2.20
2023-01-01T17:07:02.900Z,1.77
2023-01-01T17:09:29.266Z,2.22
2023-01-01T17:11:55.626Z,2.08
2023-01-01T17:14:22.119Z,2.53
2023-01-01T17:16:48.616Z,2.20
2023-01-01T17:19:16.647Z,2.93
2023-01-01T17:21:45.424Z,2.95
2023-01-01T17:24:11.865Z,2.95
2023-01-01T17:26:38.223Z,3.78
2023-01-01T17:29:06.773Z,3.45
2023-01-01T17:31:33.358Z,3.53
2023-01-01T17:33:59.760Z,3.30
2023-01-01T17:36:27.517Z,3.00
2023-01-01T17:38:54.089Z,2.75
2023-01-01T17:41:20.433Z,2.88
2023-01-01T17:43:50.165Z,2.03
2023-01-01T17:46:21.643Z,2.45
2023-01-01T17:48:48.802Z,2.10
2023-01-01T17:51:16.599Z,2.50
2023-01-01T17:53:43.835Z,2.38
2023-01-01T17:56:13.879Z,2.33
2023-01-01T17:58:41.892Z,2.05
2023-01-01T18:01:11.107Z,2.50
2023-01-01T18:03:38.296Z,2.28
2023-01-01T18:06:04.981Z,2.00
2023-01-01T18:08:32.988Z,2.40
2023-01-01T18:10:59.973Z,2.60
2023-01-01T18:13:27.272Z,2.30
2023-01-01T18:15:53.768Z,2.80
2023-01-01T18:18:20.176Z,2.72
2023-01-01T18:20:46.526Z,2.85
2023-01-01T18:23:12.883Z,3.63
2023-01-01T18:25:39.278Z,2.95
2023-01-01T18:28:06.928Z,2.92
2023-01-01T18:30:33.457Z,2.78
2023-01-01T18:33:00.092Z,2.40
2023-01-01T18:35:26.449Z,3.77
2023-01-01T18:37:53.038Z,3.00
2023-01-01T18:40:19.608Z,2.43
2023-01-01T18:42:50.408Z,2.50
2023-01-01T18:45:19.821Z,2.90
2023-01-01T18:47:46.736Z,3.22
2023-01-01T18:50:29.601Z,2.47
2023-01-01T18:53:02.976Z,2.80
2023-01-01T18:55:30.731Z,3.03
2023-01-01T18:58:14.099Z,2.88
2023-01-01T19:00:40.551Z,2.90
2023-01-01T19:03:17.473Z,2.35
2023-01-01T19:05:44.991Z,1.95
2023-01-01T19:08:19.123Z,1.95
2023-01-01T19:11:00.400Z,2.15
2023-01-01T19:13:32.962Z,1.90
2023-01-01T19:16:21.048Z,2.03
2023-01-01T19:18:50.303Z,1.92
2023-01-01T19:21:22.474Z,2.28
2023-01-01T19:23:55.894Z,1.90
2023-01-01T19:26:26.769Z,2.00
2023-01-01T19:28:56.171Z,2.10
2023-01-01T19:31:23.251Z,2.42
2023-01-01T19:33:49.988Z,2.72
2023-01-01T19:36:16.420Z,2.35
2023-01-01T19:38:44.087Z,2.40
2023-01-01T19:41:10.844Z,2.60
2023-01-01T19:43:37.776Z,2.60
2023-01-01T19:46:04.302Z,2.60
2023-01-01T19:48:30.778Z,2.55
2023-01-01T19:50:57.911Z,2.60
2023-01-01T19:53:24.310Z,2.88
2023-01-01T19:55:50.663Z,2.95
2023-01-01T19:58:19.896Z,3.05
2023-01-01T20:00:46.407Z,2.67
2023-01-01T20:03:52.373Z,2.75
2023-01-01T20:05:59.454Z,2.80
2023-01-01T20:08:26.947Z,2.80
2023-01-01T20:13:19.626Z,2.67
2023-01-01T20:15:46.992Z,2.38
2023-01-01T20:20:59.842Z,2.35
2023-01-01T20:23:26.196Z,2.90
2023-01-01T20:25:52.558Z,2.50
2023-01-01T20:28:37.573Z,2.47
2023-01-01T20:31:03.989Z,2.58
2023-01-01T20:33:30.326Z,2.97
2023-01-01T20:36:15.112Z,2.20
2023-01-01T20:38:41.536Z,2.60
2023-01-01T20:41:25.943Z,2.00
2023-01-01T20:43:58.925Z,2.40
2023-01-01T20:46:25.911Z,2.63
2023-01-01T20:48:53.450Z,2.65
2023-01-01T20:53:46.059Z,1.92
2023-01-01T20:56:12.514Z,2.30
2023-01-01T20:58:44.265Z,2.15
2023-01-01T21:01:14.406Z,2.13
2023-01-01T21:03:40.837Z,2.50
2023-01-01T21:06:07.259Z,2.30
2023-01-01T21:08:33.633Z,2.60
2023-01-01T21:10:59.961Z,2.58
2023-01-01T21:13:26.470Z,2.50
2023-01-01T21:15:55.020Z,2.67
2023-01-01T21:18:21.530Z,2.60
2023-01-01T21:20:48.806Z,2.53
2023-01-01T21:23:21.772Z,2.83
2023-01-01T21:25:51.749Z,2.58
2023-01-01T21:28:19.318Z,2.75
2023-01-01T21:30:51.410Z,3.53
2023-01-01T21:33:32.020Z,2.45
2023-01-01T21:36:04.809Z,2.78
2023-01-01T21:38:32.265Z,3.15
2023-01-01T21:43:36.797Z,2.95
2023-01-01T21:46:18.270Z,2.95
2023-01-01T21:49:01.911Z,3.08
2023-01-01T21:51:46.044Z,3.25
2023-01-01T21:54:12.499Z,3.20
2023-01-01T21:56:40.164Z,3.75
2023-01-01T21:59:27.669Z,3.70
2023-01-01T22:02:06.303Z,3.90
2023-01-01T22:04:45.876Z,3.95
2023-01-01T22:10:14.376Z,3.40
2023-01-01T22:12:41.261Z,4.22
2023-01-01T22:15:29.855Z,4.40
2023-01-01T22:18:05.607Z,3.83
2023-01-01T22:20:34.456Z,4.03
2023-01-01T22:23:05.360Z,4.20
2023-01-01T22:25:32.713Z,5.10
2023-01-01T22:28:12.077Z,4.60
2023-01-01T22:30:42.913Z,4.45
2023-01-01T22:33:17.941Z,4.65
2023-01-01T22:35:45.273Z,5.38
2023-01-01T22:38:19.321Z,5.20
2023-01-01T22:40:50.364Z,5.15
2023-01-01T22:43:27.620Z,5.00
2023-01-01T22:45:54.229Z,5.20
2023-01-01T22:48:29.280Z,4.80
2023-01-01T22:50:56.552Z,4.80
2023-01-01T22:53:22.919Z,5.10
2023-01-01T22:55:49.279Z,5.30
2023-01-01T22:58:15.772Z,5.50
2023-01-01T23:00:42.150Z,5.25
2023-01-01T23:03:08.685Z,5.60
2023-01-01T23:05:35.141Z,5.57
2023-01-01T23:08:01.489Z,5.30
2023-01-01T23:10:27.847Z,5.60
2023-01-01T23:12:54.312Z,5.57
2023-01-01T23:15:39.134Z,5.50
2023-01-01T23:18:05.703Z,5.53
2023-01-01T23:20:32.170Z,5.85
2023-01-01T23:22:58.835Z,5.90
2023-01-01T23:25:25.350Z,5.40
2023-01-01T23:27:52.561Z,6.13
2023-01-01T23:30:19.369Z,5.57
2023-01-01T23:32:46.375Z,6.05
2023-01-01T23:35:13.019Z,5.82
2023-01-01T23:37:39.635Z,6.00
2023-01-01T23:40:06.645Z,5.27
2023-01-01T23:42:33.111Z,5.88
2023-01-01T23:44:59.457Z,5.85
2023-01-01T23:47:25.837Z,5.85
2023-01-01T23:49:52.208Z,5.68
2023-01-01T23:52:18.596Z,5.93
2023-01-01T23:54:44.943Z,5.45
2023-01-01T23:57:11.369Z,5.75
2023-01-01T23:59:37.713Z,5.35
